Time;durP1;ratioP1;P1;durP2;ratioP2;P2;SDS_P1;SDS_P2;PMS_P1;PMS_P2;Temp;Humidity;BMP_temperature;BMP_pressure;BME280_temperature;BME280_humidity;BME280_pressure;Samples;Min_cycle;Max_cycle;Signal;HPM_P1;HPM_P2
2022/10/29 00:00:41;;;;;;;46.88;9.70;;;12.80;99.90;;;;;;5020921;28;20046;-67
2022/10/29 00:03:07;;;;;;;44.83;9.02;;;12.80;99.90;;;;;;5007237;28;20048;-67
2022/10/29 00:05:33;;;;;;;31.42;8.65;;;12.70;99.90;;;;;;5000867;28;20037;-68
2022/10/29 00:07:59;;;;;;;50.13;10.65;;;15.00;99.90;;;;;;5006481;28;20045;-68
2022/10/29 00:10:25;;;;;;;42.25;8.73;;;12.80;99.90;;;;;;5006679;28;20128;-68
2022/10/29 00:12:51;;;;;;;30.40;7.50;;;12.60;99.90;;;;;;5006041;28;20034;-67
2022/10/29 00:15:17;;;;;;;28.92;6.95;;;12.60;99.90;;;;;;5005638;28;20757;-68
2022/10/29 00:17:42;;;;;;;29.02;6.78;;;12.50;99.90;;;;;;5007656;28;20613;-68
2022/10/29 00:20:08;;;;;;;39.67;8.30;;;12.40;99.90;;;;;;5005502;28;20073;-67
2022/10/29 00:22:34;;;;;;;33.35;7.93;;;12.40;99.90;;;;;;5007268;28;20038;-67
2022/10/29 00:25:00;;;;;;;30.58;7.45;;;12.40;99.90;;;;;;5003847;28;20048;-68
2022/10/29 00:27:26;;;;;;;20.85;6.10;;;10.80;99.90;;;;;;5005327;28;20050;-68
2022/10/29 00:29:51;;;;;;;23.75;5.97;;;12.30;99.90;;;;;;5006224;28;20121;-68
2022/10/29 00:32:17;;;;;;;31.77;6.32;;;12.30;99.90;;;;;;5001527;28;20499;-68
2022/10/29 00:34:43;;;;;;;27.15;7.00;;;12.30;99.90;;;;;;5007681;28;20882;-68
2022/10/29 00:37:08;;;;;;;31.30;6.82;;;12.30;99.90;;;;;;5004399;28;20077;-68
2022/10/29 00:39:34;;;;;;;25.63;6.10;;;12.10;99.90;;;;;;5007131;28;20038;-69
2022/10/29 00:42:01;;;;;;;29.52;7.03;;;12.10;99.90;;;;;;5005827;28;20042;-68
2022/10/29 00:44:31;;;;;;;37.15;7.93;;;12.00;99.90;;;;;;4997097;28;20053;-68
2022/10/29 00:47:18;;;;;;;31.73;7.95;;;12.00;99.90;;;;;;5005662;28;20049;-68
2022/10/29 00:49:47;;;;;;;65.28;9.95;;;12.10;99.90;;;;;;5006668;28;20038;-69
2022/10/29 00:52:14;;;;;;;47.13;9.50;;;12.10;99.90;;;;;;5004692;28;20090;-69
2022/10/29 00:54:41;;;;;;;64.13;10.57;;;12.20;99.90;;;;;;5021367;28;20045;-68
2022/10/29 00:57:15;;;;;;;32.90;7.93;;;12.10;99.90;;;;;;5002546;28;20392;-68
2022/10/29 00:59:43;;;;;;;48.00;8.13;;;12.20;99.90;;;;;;4986982;28;20037;-68
2022/10/29 01:02:09;;;;;;;62.17;9.07;;;12.20;99.90;;;;;;5002161;28;20158;-68
2022/10/29 01:04:36;;;;;;;60.35;10.32;;;12.10;99.90;;;;;;5004677;28;20111;-68
2022/10/29 01:07:02;;;;;;;79.57;9.82;;;12.20;99.90;;;;;;5002989;28;20048;-68
2022/10/29 01:09:27;;;;;;;55.92;8.93;;;13.30;99.90;;;;;;5006836;28;20041;-68
2022/10/29 01:12:02;;;;;;;135.73;11.90;;;12.10;99.90;;;;;;5008687;28;20052;-67
2022/10/29 01:14:41;;;;;;;57.80;11.40;;;12.30;99.90;;;;;;5018778;28;20455;-68
2022/10/29 01:17:22;;;;;;;92.80;14.13;;;12.20;99.90;;;;;;5004633;28;20724;-68
2022/10/29 01:19:56;;;;;;;89.57;15.13;;;12.30;99.90;;;;;;4989988;28;20110;-68
2022/10/29 01:22:30;;;;;;;79.05;13.43;;;12.30;99.90;;;;;;5004309;28;20045;-68
2022/10/29 01:25:18;;;;;;;90.10;15.18;;;12.50;99.90;;;;;;4998895;28;20496;-68
2022/10/29 01:27:55;;;;;;;109.50;15.43;;;12.40;99.90;;;;;;5001208;28;20112;-68
2022/10/29 01:30:47;;;;;;;45.63;11.52;;;12.20;99.90;;;;;;5001892;28;20118;-66
2022/10/29 01:33:29;;;;;;;48.40;12.88;;;12.40;99.90;;;;;;5005029;28;20411;-67
2022/10/29 01:36:06;;;;;;;84.95;13.80;;;12.30;99.90;;;;;;5005454;28;20130;-68
2022/10/29 01:38:41;;;;;;;70.03;12.10;;;12.40;99.90;;;;;;5003701;28;20042;-68
2022/10/29 01:41:21;;;;;;;100.65;13.05;;;12.30;99.90;;;;;;5004359;28;20407;-67
2022/10/29 01:44:05;;;;;;;92.22;12.38;;;12.40;99.90;;;;;;5001418;28;20680;-68
2022/10/29 01:46:47;;;;;;;70.43;10.43;;;12.50;99.90;;;;;;5002764;28;20519;-68
2022/10/29 01:49:18;;;;;;;52.10;11.30;;;12.40;99.90;;;;;;5003049;28;20403;-67
2022/10/29 01:51:46;;;;;;;72.78;13.02;;;12.50;99.90;;;;;;5001002;28;20149;-68
2022/10/29 01:54:11;;;;;;;21.35;8.40;;;12.50;99.90;;;;;;4996658;28;20551;-67
2022/10/29 01:56:37;;;;;;;40.22;9.77;;;13.00;99.90;;;;;;4997840;28;20046;-68
2022/10/29 01:59:09;;;;;;;41.70;9.77;;;12.90;99.90;;;;;;5001752;28;20038;-68
2022/10/29 02:01:59;;;;;;;;;;;12.40;99.90;;;;;;5002542;28;20092;-67
2022/10/29 02:05:09;;;;;;;55.10;11.35;;;12.40;99.90;;;;;;5005351;28;19932;-67
2022/10/29 02:07:41;;;;;;;76.45;9.43;;;12.40;99.90;;;;;;4987209;28;20672;-67
2022/10/29 02:10:16;;;;;;;140.00;13.52;;;12.20;99.90;;;;;;5001772;28;20450;-67
2022/10/29 02:12:48;;;;;;;83.32;10.00;;;12.30;99.90;;;;;;4985377;28;20049;-66
2022/10/29 02:15:55;;;;;;;144.43;13.65;;;12.20;99.90;;;;;;5001184;28;20820;-65
2022/10/29 02:18:21;;;;;;;231.55;18.48;;;12.20;99.90;;;;;;5029329;28;20131;-66
2022/10/29 02:20:47;;;;;;;106.57;12.05;;;14.20;99.90;;;;;;5008737;28;20192;-66
2022/10/29 02:23:15;;;;;;;85.50;12.05;;;12.40;99.90;;;;;;5005569;28;20056;-67
2022/10/29 02:25:41;;;;;;;136.00;13.93;;;12.40;99.90;;;;;;5005342;28;20625;-66
2022/10/29 02:28:07;;;;;;;165.85;17.48;;;12.20;99.90;;;;;;5004254;28;20041;-67
2022/10/29 02:30:32;;;;;;;179.48;19.10;;;12.50;99.90;;;;;;5001758;28;20038;-66
2022/10/29 02:32:58;;;;;;;155.60;18.27;;;14.40;99.90;;;;;;5004789;28;20052;-67
2022/10/29 02:35:24;;;;;;;142.63;15.65;;;12.30;99.90;;;;;;5000410;28;20037;-67
2022/10/29 02:37:49;;;;;;;197.90;19.40;;;12.30;99.90;;;;;;5001451;28;20041;-66
2022/10/29 02:40:15;;;;;;;151.68;16.95;;;12.30;99.90;;;;;;4987626;28;20044;-66
2022/10/29 02:42:41;;;;;;;154.75;14.90;;;12.40;99.90;;;;;;5004114;28;20186;-66
2022/10/29 02:45:07;;;;;;;113.57;16.85;;;12.30;99.90;;;;;;4986491;28;20799;-66
2022/10/29 02:47:33;;;;;;;104.05;15.00;;;12.30;99.90;;;;;;5000308;28;20428;-66
2022/10/29 02:49:59;;;;;;;123.30;16.30;;;12.00;99.90;;;;;;5005896;28;20037;-67
2022/10/29 02:52:24;;;;;;;131.25;18.80;;;13.00;99.90;;;;;;5003080;28;20099;-67
2022/10/29 02:54:50;;;;;;;68.82;16.00;;;12.20;99.90;;;;;;5001233;28;20068;-67
2022/10/29 02:57:16;;;;;;;108.32;16.52;;;12.20;99.90;;;;;;5001092;28;20092;-67
2022/10/29 02:59:41;;;;;;;98.93;16.63;;;12.20;99.90;;;;;;4999845;28;20046;-67
2022/10/29 03:02:07;;;;;;;125.57;19.45;;;12.10;99.90;;;;;;5004068;28;20110;-67
2022/10/29 03:04:33;;;;;;;115.50;16.92;;;12.20;99.90;;;;;;5001885;28;20038;-66
2022/10/29 03:07:00;;;;;;;141.18;18.52;;;12.20;99.90;;;;;;5003361;28;20677;-66
2022/10/29 03:09:26;;;;;;;114.70;17.23;;;12.40;99.90;;;;;;4989040;28;20129;-67
2022/10/29 03:11:52;;;;;;;127.78;20.05;;;12.20;99.90;;;;;;5002383;28;20132;-67
2022/10/29 03:14:17;;;;;;;84.97;14.07;;;13.90;99.90;;;;;;5001426;28;20069;-66
2022/10/29 03:16:43;;;;;;;152.32;19.30;;;12.10;99.90;;;;;;4999136;28;20042;-66
2022/10/29 03:19:09;;;;;;;108.30;18.40;;;12.20;99.90;;;;;;5007658;28;20498;-66
2022/10/29 03:21:35;;;;;;;109.90;19.17;;;12.20;99.90;;;;;;5003735;28;20075;-65
2022/10/29 03:24:00;;;;;;;96.10;16.00;;;12.10;99.90;;;;;;5001157;28;20528;-66
2022/10/29 03:26:26;;;;;;;64.47;13.93;;;14.20;99.90;;;;;;5004027;28;20748;-66
2022/10/29 03:28:52;;;;;;;77.78;15.10;;;12.20;99.90;;;;;;5003315;28;20183;-65
2022/10/29 03:31:18;;;;;;;97.28;16.15;;;12.30;99.90;;;;;;5005872;28;20030;-65
2022/10/29 03:33:43;;;;;;;109.07;18.85;;;12.20;99.90;;;;;;5003557;28;20041;-65
2022/10/29 03:36:09;;;;;;;93.18;16.83;;;12.20;99.90;;;;;;5005164;28;20094;-65
2022/10/29 03:38:35;;;;;;;138.00;17.98;;;12.10;99.90;;;;;;5001870;28;20867;-65
2022/10/29 03:41:01;;;;;;;159.63;20.63;;;13.50;99.90;;;;;;5003432;28;20069;-65
2022/10/29 03:43:26;;;;;;;187.73;23.10;;;12.20;99.90;;;;;;5003780;28;20049;-65
2022/10/29 03:45:56;;;;;;;39.40;11.27;;;12.20;99.90;;;;;;5007786;28;20034;-65
2022/10/29 03:48:23;;;;;;;76.75;12.57;;;12.20;99.90;;;;;;5005630;28;20038;-66
2022/10/29 03:51:00;;;;;;;177.75;21.17;;;12.20;99.90;;;;;;5005608;28;20539;-65
2022/10/29 03:53:28;;;;;;;73.15;13.07;;;12.40;99.90;;;;;;5001578;28;20069;-65
2022/10/29 03:55:54;;;;;;;63.65;12.70;;;12.20;99.90;;;;;;5004395;28;20081;-66
2022/10/29 03:58:21;;;;;;;73.60;11.77;;;12.10;99.90;;;;;;5005378;28;20045;-66
2022/10/29 04:00:57;;;;;;;147.63;20.23;;;12.30;99.90;;;;;;5007845;28;20098;-65
2022/10/29 04:03:24;;;;;;;62.70;12.55;;;12.50;99.90;;;;;;5005624;28;20056;-65
2022/10/29 04:05:50;;;;;;;91.53;14.48;;;12.20;99.90;;;;;;5008502;28;20053;-66
2022/10/29 04:08:16;;;;;;;73.65;12.23;;;12.20;99.90;;;;;;5006432;28;20048;-66
2022/10/29 04:10:46;;;;;;;69.60;13.85;;;12.10;99.90;;;;;;5006710;28;20033;-66
2022/10/29 04:13:12;;;;;;;95.60;17.25;;;13.00;99.90;;;;;;5003992;28;20495;-65
2022/10/29 04:15:38;;;;;;;101.25;16.00;;;12.30;99.90;;;;;;5003943;28;20045;-65
2022/10/29 04:18:04;;;;;;;77.13;14.90;;;12.20;99.90;;;;;;5000199;28;20218;-65
2022/10/29 04:20:30;;;;;;;86.72;14.68;;;12.10;99.90;;;;;;5006574;28;20492;-65
2022/10/29 04:22:56;;;;;;;120.40;14.73;;;12.30;99.90;;;;;;5005169;28;20097;-66
2022/10/29 04:25:21;;;;;;;98.97;14.60;;;13.50;99.90;;;;;;5003699;28;20140;-66
2022/10/29 04:27:47;;;;;;;149.38;18.27;;;13.00;99.90;;;;;;5006218;28;20044;-65
2022/10/29 04:30:13;;;;;;;147.60;17.08;;;12.90;99.90;;;;;;5005830;28;20125;-65
2022/10/29 04:32:39;;;;;;;108.63;14.85;;;12.00;99.90;;;;;;5003238;28;20052;-65
2022/10/29 04:35:05;;;;;;;94.95;14.55;;;12.90;99.90;;;;;;5004283;28;20045;-65
2022/10/29 04:37:30;;;;;;;32.50;10.75;;;12.40;99.90;;;;;;5005409;28;20286;-66
2022/10/29 04:39:56;;;;;;;94.15;13.27;;;12.20;99.90;;;;;;5007658;28;20042;-65
2022/10/29 04:42:22;;;;;;;64.65;13.70;;;12.40;99.90;;;;;;5004230;28;20045;-65
2022/10/29 04:44:48;;;;;;;139.90;17.13;;;12.30;99.90;;;;;;5007274;28;20049;-65
2022/10/29 04:47:13;;;;;;;70.25;12.60;;;12.30;99.90;;;;;;5005173;28;20041;-65
2022/10/29 04:49:39;;;;;;;95.80;14.95;;;12.10;99.90;;;;;;5006772;28;20076;-65
2022/10/29 04:52:05;;;;;;;115.15;16.10;;;12.10;99.90;;;;;;5005347;28;20053;-65
2022/10/29 04:54:30;;;;;;;76.18;13.77;;;12.20;99.90;;;;;;5007197;28;20053;-65
2022/10/29 04:56:56;;;;;;;160.73;18.60;;;12.30;99.90;;;;;;5008311;28;20120;-65
2022/10/29 04:59:22;;;;;;;86.43;14.27;;;12.20;99.90;;;;;;5006567;28;20126;-65
2022/10/29 05:01:47;;;;;;;201.30;21.02;;;12.10;99.90;;;;;;5008100;28;20514;-65
2022/10/29 05:04:13;;;;;;;109.68;15.57;;;12.40;99.90;;;;;;5006785;28;20037;-65
2022/10/29 05:06:39;;;;;;;110.68;15.80;;;12.50;99.90;;;;;;5005776;28;20067;-66
2022/10/29 05:09:04;;;;;;;108.03;16.33;;;12.10;99.90;;;;;;5002094;28;20337;-66
2022/10/29 05:11:30;;;;;;;105.00;16.48;;;12.20;99.90;;;;;;4988336;28;20038;-66
2022/10/29 05:13:56;;;;;;;95.30;15.55;;;12.30;99.90;;;;;;5004530;28;20106;-66
2022/10/29 05:16:22;;;;;;;46.22;11.98;;;13.50;99.90;;;;;;4999749;28;20057;-66
2022/10/29 05:18:47;;;;;;;119.57;16.48;;;12.10;99.90;;;;;;5006252;28;20503;-66
2022/10/29 05:21:14;;;;;;;119.43;15.18;;;12.20;99.90;;;;;;5004288;28;20077;-66
2022/10/29 05:23:40;;;;;;;90.80;15.43;;;12.10;99.90;;;;;;5003675;28;20038;-66
2022/10/29 05:26:05;;;;;;;64.95;13.68;;;12.10;99.90;;;;;;5002978;28;20257;-66
2022/10/29 05:28:31;;;;;;;154.35;17.65;;;12.20;99.90;;;;;;5000403;28;20046;-66
2022/10/29 05:31:00;;;;;;;44.22;11.75;;;12.10;99.90;;;;;;5002597;28;20424;-66
2022/10/29 05:33:26;;;;;;;52.42;12.70;;;12.30;99.90;;;;;;5003537;28;20053;-66
2022/10/29 05:35:51;;;;;;;51.25;12.82;;;12.20;99.90;;;;;;5002693;28;20453;-66
2022/10/29 05:38:17;;;;;;;76.03;14.18;;;12.20;99.90;;;;;;5005870;28;20041;-67
2022/10/29 05:40:43;;;;;;;79.07;14.60;;;11.90;99.90;;;;;;5003217;28;20415;-66
2022/10/29 05:43:10;;;;;;;75.90;15.10;;;12.00;99.90;;;;;;5003381;28;20719;-66
2022/10/29 05:45:36;;;;;;;63.05;13.57;;;12.10;99.90;;;;;;5003001;28;20496;-66
2022/10/29 05:48:03;;;;;;;78.75;13.55;;;12.10;99.90;;;;;;5005230;28;20042;-66
2022/10/29 05:50:30;;;;;;;86.97;14.52;;;12.10;99.90;;;;;;5004799;28;20045;-66
2022/10/29 05:52:58;;;;;;;101.72;16.23;;;12.20;99.90;;;;;;5000888;28;20054;-66
2022/10/29 05:55:24;;;;;;;76.43;13.85;;;12.20;99.90;;;;;;5003761;28;20118;-66
2022/10/29 05:57:54;;;;;;;85.00;14.85;;;12.20;99.90;;;;;;5003759;28;20136;-67
2022/10/29 06:00:20;;;;;;;94.80;16.48;;;12.20;99.90;;;;;;5003428;28;20458;-66
2022/10/29 06:02:46;;;;;;;101.57;15.73;;;12.20;99.90;;;;;;5005366;28;20046;-66
2022/10/29 06:05:11;;;;;;;79.65;14.05;;;14.20;99.90;;;;;;5008480;28;20073;-66
2022/10/29 06:07:37;;;;;;;84.80;15.43;;;12.10;99.90;;;;;;5005278;28;20048;-66
2022/10/29 06:10:03;;;;;;;75.40;13.10;;;12.00;99.90;;;;;;5001450;28;20033;-66
2022/10/29 06:12:32;;;;;;;78.10;14.10;;;12.00;99.90;;;;;;5022203;28;20068;-66
2022/10/29 06:14:58;;;;;;;92.95;15.00;;;13.40;99.90;;;;;;5004922;28;20048;-66
2022/10/29 06:17:24;;;;;;;98.90;14.05;;;12.10;99.90;;;;;;5002133;28;20072;-64
2022/10/29 06:19:49;;;;;;;90.38;15.63;;;12.00;99.90;;;;;;5003588;28;20118;-66
2022/10/29 06:22:15;;;;;;;63.03;12.60;;;12.20;99.90;;;;;;5000619;28;20900;-66
2022/10/29 06:24:41;;;;;;;118.57;15.77;;;12.20;99.90;;;;;;5005100;28;20046;-66
2022/10/29 06:27:06;;;;;;;83.38;13.90;;;12.90;99.90;;;;;;4999844;28;20098;-66
2022/10/29 06:29:32;;;;;;;107.70;15.85;;;12.30;99.90;;;;;;5006781;28;20057;-66
2022/10/29 06:31:58;;;;;;;127.43;15.48;;;12.10;99.90;;;;;;5005361;28;20128;-66
2022/10/29 06:34:23;;;;;;;118.57;15.32;;;12.10;99.90;;;;;;5005052;28;20339;-67
2022/10/29 06:36:50;;;;;;;114.78;15.15;;;14.40;99.90;;;;;;5006739;28;20037;-66
2022/10/29 06:39:16;;;;;;;143.20;17.05;;;12.20;99.90;;;;;;5005376;28;20080;-66
2022/10/29 06:41:41;;;;;;;100.78;13.70;;;12.40;99.90;;;;;;5006413;28;20511;-66
2022/10/29 06:44:07;;;;;;;83.43;12.65;;;12.30;99.90;;;;;;5005160;28;20066;-66
2022/10/29 06:46:33;;;;;;;111.45;14.88;;;12.30;99.90;;;;;;5003864;28;20502;-66
2022/10/29 06:49:00;;;;;;;167.30;17.40;;;12.20;99.90;;;;;;5003315;28;20116;-66
2022/10/29 06:51:25;;;;;;;122.00;15.38;;;12.30;99.90;;;;;;5004815;28;20052;-65
2022/10/29 06:53:52;;;;;;;79.50;12.85;;;12.60;99.90;;;;;;5001381;28;20038;-66
2022/10/29 06:56:19;;;;;;;88.07;13.15;;;12.50;99.90;;;;;;5002989;28;20056;-66
2022/10/29 06:58:45;;;;;;;118.57;14.63;;;12.40;99.90;;;;;;5002789;28;21118;-66
2022/10/29 07:01:11;;;;;;;81.68;13.30;;;12.30;99.90;;;;;;5000785;28;20045;-66
2022/10/29 07:03:37;;;;;;;240.13;18.90;;;12.40;99.90;;;;;;5005853;28;20483;-66
2022/10/29 07:06:02;;;;;;;44.97;11.23;;;12.40;99.90;;;;;;4992685;28;20102;-65
2022/10/29 07:08:29;;;;;;;68.53;12.73;;;12.50;99.90;;;;;;5004900;28;20038;-66
2022/10/29 07:10:55;;;;;;;96.65;13.15;;;12.70;99.90;;;;;;5003896;28;20415;-66
2022/10/29 07:13:21;;;;;;;77.13;11.82;;;12.60;99.90;;;;;;5001353;28;20053;-66
2022/10/29 07:15:47;;;;;;;85.63;12.30;;;12.60;99.90;;;;;;5001863;28;20044;-65
2022/10/29 07:18:13;;;;;;;75.05;11.55;;;12.70;99.90;;;;;;5003603;28;20040;-66
2022/10/29 07:20:41;;;;;;;75.20;11.27;;;12.60;99.90;;;;;;5007071;28;20049;-66
2022/10/29 07:23:08;;;;;;;82.50;12.20;;;12.70;99.90;;;;;;5004651;28;20203;-65
2022/10/29 07:25:35;;;;;;;102.00;13.00;;;12.70;99.90;;;;;;5005373;28;20044;-65
2022/10/29 07:28:03;;;;;;;118.85;14.43;;;12.80;99.90;;;;;;5006240;28;20503;-65
2022/10/29 07:30:29;;;;;;;49.65;11.00;;;12.70;99.90;;;;;;5006696;28;20037;-66
2022/10/29 07:32:55;;;;;;;43.50;11.52;;;12.80;99.90;;;;;;5008294;28;20068;-66
2022/10/29 07:35:21;;;;;;;50.67;10.73;;;12.70;99.90;;;;;;5005784;28;20050;-65
2022/10/29 07:37:46;;;;;;;73.75;11.60;;;12.80;99.90;;;;;;5008600;28;20147;-66
2022/10/29 07:40:12;;;;;;;129.38;14.50;;;12.70;99.90;;;;;;5007710;28;20037;-66
2022/10/29 07:42:38;;;;;;;99.95;14.20;;;12.80;99.90;;;;;;5007699;28;20042;-66
2022/10/29 07:45:04;;;;;;;73.22;13.75;;;12.90;99.90;;;;;;5009505;28;20177;-65
2022/10/29 07:47:30;;;;;;;66.43;13.95;;;12.90;99.90;;;;;;5007182;28;20038;-66
2022/10/29 07:49:56;;;;;;;89.00;16.90;;;12.80;99.90;;;;;;5009841;28;20053;-66
2022/10/29 07:52:22;;;;;;;66.43;15.75;;;12.80;99.90;;;;;;5004100;28;20863;-65
2022/10/29 07:54:47;;;;;;;58.33;17.27;;;13.00;99.90;;;;;;5007618;28;20045;-65
2022/10/29 07:57:14;;;;;;;79.43;21.40;;;13.00;99.90;;;;;;5007610;28;20041;-66
2022/10/29 07:59:41;;;;;;;62.88;20.30;;;13.00;99.90;;;;;;5006249;28;20124;-66
2022/10/29 08:02:10;;;;;;;63.72;21.25;;;13.10;99.90;;;;;;5006360;28;20073;-65
2022/10/29 08:04:35;;;;;;;82.93;24.38;;;13.10;99.90;;;;;;5004994;28;20042;-66
2022/10/29 08:07:01;;;;;;;67.75;23.10;;;15.00;99.90;;;;;;5007086;28;20046;-66
2022/10/29 08:09:27;;;;;;;82.18;25.27;;;15.10;99.90;;;;;;5003484;28;20041;-66
2022/10/29 08:11:53;;;;;;;94.03;26.65;;;13.10;99.90;;;;;;5007482;28;20053;-66
2022/10/29 08:14:18;;;;;;;63.65;22.90;;;13.20;99.90;;;;;;5004177;28;20503;-66
2022/10/29 08:16:45;;;;;;;77.20;24.45;;;13.20;99.90;;;;;;5006541;28;20388;-66
2022/10/29 08:19:11;;;;;;;81.18;26.27;;;13.90;99.90;;;;;;5006668;28;20700;-66
2022/10/29 08:21:37;;;;;;;83.18;26.52;;;13.30;99.90;;;;;;5006390;28;20037;-66
2022/10/29 08:24:03;;;;;;;70.85;24.75;;;13.10;99.90;;;;;;5006546;28;20042;-66
2022/10/29 08:26:29;;;;;;;71.95;26.83;;;13.40;99.90;;;;;;5006257;28;20172;-66
2022/10/29 08:28:55;;;;;;;57.70;24.67;;;13.40;99.90;;;;;;5005044;28;20037;-66
2022/10/29 08:31:20;;;;;;;71.82;25.77;;;13.20;99.90;;;;;;5007196;28;20041;-66
2022/10/29 08:33:49;;;;;;;75.07;26.77;;;13.40;99.90;;;;;;5006041;28;20092;-65
2022/10/29 08:36:15;;;;;;;54.60;25.27;;;12.00;99.90;;;;;;5004136;28;20129;-66
2022/10/29 08:38:41;;;;;;;63.75;26.27;;;13.40;99.90;;;;;;5002453;28;20046;-66
2022/10/29 08:41:39;;;;;;;59.03;24.60;;;13.50;99.90;;;;;;5005887;28;20067;-66
2022/10/29 08:44:43;;;;;;;58.15;25.25;;;13.40;99.90;;;;;;5006309;28;20045;-66
2022/10/29 08:47:17;;;;;;;74.05;28.80;;;13.60;99.90;;;;;;4999365;28;20038;-66
2022/10/29 08:50:14;;;;;;;74.57;28.33;;;13.60;99.90;;;;;;5003350;28;20071;-66
2022/10/29 08:52:42;;;;;;;60.20;27.92;;;13.70;99.90;;;;;;5006378;28;20084;-66
2022/10/29 08:55:18;;;;;;;73.65;29.55;;;13.50;99.90;;;;;;5008040;28;20583;-66
2022/10/29 08:57:55;;;;;;;64.18;28.60;;;13.50;99.90;;;;;;5005975;28;20049;-66
2022/10/29 09:00:25;;;;;;;61.08;27.27;;;13.50;99.90;;;;;;5001416;28;20334;-67
2022/10/29 09:02:55;;;;;;;56.03;26.05;;;13.60;99.90;;;;;;5006295;28;20067;-66
2022/10/29 09:05:25;;;;;;;61.38;27.35;;;13.40;99.90;;;;;;5003222;28;20310;-67
2022/10/29 09:08:09;;;;;;;57.70;26.67;;;13.70;99.90;;;;;;5005009;28;20052;-66
2022/10/29 09:10:44;;;;;;;63.25;26.83;;;13.80;99.90;;;;;;5005495;28;20046;-66
2022/10/29 09:13:31;;;;;;;64.70;28.38;;;13.80;99.90;;;;;;5001455;28;20037;-67
2022/10/29 09:16:41;;;;;;;55.13;25.70;;;13.90;99.90;;;;;;5002608;28;20416;-67
2022/10/29 09:19:29;;;;;;;55.50;25.63;;;13.90;99.90;;;;;;5048891;28;20044;-66
2022/10/29 09:21:57;;;;;;;55.47;24.45;;;14.10;99.90;;;;;;5007816;28;20422;-66
2022/10/29 09:24:49;;;;;;;44.17;24.35;;;14.10;99.90;;;;;;5002850;28;20049;-67
2022/10/29 09:27:23;;;;;;;45.92;24.02;;;15.00;99.90;;;;;;4990568;28;20838;-66
2022/10/29 09:30:01;;;;;;;43.22;22.10;;;14.10;99.90;;;;;;5004493;28;20523;-65
2022/10/29 09:32:40;;;;;;;45.17;23.63;;;14.10;99.90;;;;;;5001415;28;20046;-67
2022/10/29 09:35:14;;;;;;;43.97;22.75;;;14.20;99.90;;;;;;5005783;28;20056;-67
2022/10/29 09:37:44;;;;;;;42.28;23.17;;;14.50;99.90;;;;;;4992301;28;20562;-67
2022/10/29 09:40:28;;;;;;;47.63;23.95;;;14.30;99.90;;;;;;5002758;28;20090;-67
2022/10/29 09:42:57;;;;;;;41.17;21.95;;;14.10;99.90;;;;;;5000096;28;20915;-67
2022/10/29 09:45:29;;;;;;;44.70;22.35;;;14.10;99.90;;;;;;5002766;28;20053;-67
2022/10/29 09:48:01;;;;;;;38.42;21.33;;;14.20;99.90;;;;;;5002613;28;20105;-67
2022/10/29 09:50:56;;;;;;;46.28;23.33;;;14.20;99.90;;;;;;5004557;28;20052;-68
2022/10/29 09:53:22;;;;;;;42.03;22.98;;;14.30;99.90;;;;;;5004557;28;20057;-68
2022/10/29 09:55:52;;;;;;;53.88;23.90;;;14.40;99.90;;;;;;5004517;28;20049;-68
2022/10/29 09:58:26;;;;;;;41.22;21.33;;;14.50;99.90;;;;;;5001342;28;20056;-67
2022/10/29 10:00:54;;;;;;;46.92;22.50;;;14.60;99.90;;;;;;5003890;28;20037;-67
2022/10/29 10:03:32;;;;;;;37.42;21.77;;;14.70;99.90;;;;;;5002783;28;20053;-67
2022/10/29 10:06:04;;;;;;;36.67;21.27;;;14.70;99.90;;;;;;5003868;28;20120;-68
2022/10/29 10:08:31;;;;;;;48.45;23.88;;;14.80;99.90;;;;;;5002491;28;20042;-68
2022/10/29 10:11:05;;;;;;;41.72;21.83;;;16.10;99.90;;;;;;5004284;28;20045;-67
2022/10/29 10:13:37;;;;;;;44.80;21.92;;;14.90;99.90;;;;;;5003216;28;20053;-68
2022/10/29 10:16:05;;;;;;;41.60;20.15;;;15.10;99.90;;;;;;5005002;28;20046;-68
2022/10/29 10:18:30;;;;;;;38.60;19.83;;;15.10;99.90;;;;;;5003239;28;20407;-68
2022/10/29 10:21:11;;;;;;;34.60;18.65;;;15.20;99.90;;;;;;5002918;28;20045;-68
2022/10/29 10:23:51;;;;;;;41.97;19.50;;;15.20;99.90;;;;;;5017886;28;20128;-68
2022/10/29 10:26:38;;;;;;;31.33;19.52;;;15.30;99.90;;;;;;5002472;28;20038;-68
2022/10/29 10:29:21;;;;;;;29.33;18.00;;;15.80;99.90;;;;;;5003047;28;20722;-68
2022/10/29 10:31:47;;;;;;;32.42;17.48;;;15.80;99.90;;;;;;4999263;28;20248;-68
2022/10/29 10:34:15;;;;;;;35.33;19.05;;;15.60;99.90;;;;;;5003669;28;20054;-68
2022/10/29 10:36:56;;;;;;;32.33;18.73;;;15.90;99.90;;;;;;5017158;28;20034;-69
2022/10/29 10:39:24;;;;;;;35.97;20.50;;;15.80;99.90;;;;;;4989750;28;20038;-69
2022/10/29 10:41:51;;;;;;;34.72;17.77;;;15.80;99.90;;;;;;5002510;28;20042;-68
2022/10/29 10:44:19;;;;;;;33.53;18.60;;;15.90;99.90;;;;;;4985186;28;20459;-68
2022/10/29 10:46:46;;;;;;;31.13;17.80;;;15.90;99.90;;;;;;5002199;28;20440;-69
2022/10/29 10:49:16;;;;;;;43.67;20.88;;;15.80;99.90;;;;;;4998991;28;20416;-69
2022/10/29 10:51:54;;;;;;;29.35;17.88;;;16.10;99.90;;;;;;5004148;28;20085;-69
2022/10/29 10:54:38;;;;;;;26.95;15.50;;;16.10;99.90;;;;;;5002753;28;20129;-69
2022/10/29 10:57:10;;;;;;;27.48;16.52;;;16.30;99.90;;;;;;5001232;28;20046;-68
2022/10/29 11:00:03;;;;;;;29.30;16.77;;;16.30;99.90;;;;;;5000810;28;20045;-70
2022/10/29 11:02:44;;;;;;;25.63;13.52;;;18.40;99.90;;;;;;5001903;28;20133;-70
2022/10/29 11:05:35;;;;;;;25.55;13.32;;;16.20;99.90;;;;;;5001335;28;20426;-69
2022/10/29 11:08:10;;;;;;;25.95;14.63;;;14.80;99.90;;;;;;4997225;28;20037;-70
2022/10/29 11:10:41;;;;;;;23.30;12.55;;;16.70;99.90;;;;;;5001782;28;20041;-70
2022/10/29 11:13:14;;;;;;;25.52;13.88;;;16.50;99.90;;;;;;5002784;28;20054;-70
2022/10/29 11:15:56;;;;;;;26.23;13.00;;;16.60;99.90;;;;;;4969853;28;20483;-70
2022/10/29 11:18:33;;;;;;;23.88;12.90;;;16.70;99.90;;;;;;4985917;28;20115;-70
2022/10/29 11:21:19;;;;;;;20.65;12.02;;;16.90;99.90;;;;;;5001328;28;20048;-70
2022/10/29 11:24:05;;;;;;;27.40;12.52;;;18.80;99.90;;;;;;5002917;28;20045;-71
2022/10/29 11:26:40;;;;;;;20.05;11.32;;;16.90;99.90;;;;;;5017300;28;20435;-71
2022/10/29 11:29:31;;;;;;;28.23;12.50;;;16.80;99.90;;;;;;5001095;28;20049;-71
2022/10/29 11:32:29;;;;;;;22.48;11.32;;;16.90;99.90;;;;;;4974872;28;20137;-70
2022/10/29 11:35:04;;;;;;;21.85;10.73;;;17.10;99.90;;;;;;4984228;28;20042;-71
2022/10/29 11:37:56;;;;;;;18.95;9.95;;;17.10;99.90;;;;;;5001371;28;20089;-71
2022/10/29 11:40:29;;;;;;;26.13;12.48;;;17.20;99.90;;;;;;5001512;28;20045;-71
2022/10/29 11:42:54;;;;;;;26.70;11.63;;;17.20;99.90;;;;;;4998513;28;20042;-71
2022/10/29 11:45:33;;;;;;;21.80;10.98;;;17.40;99.90;;;;;;5054556;28;20118;-71
2022/10/29 11:48:08;;;;;;;21.80;11.00;;;17.20;99.90;;;;;;5000510;28;20096;-71
2022/10/29 11:50:49;;;;;;;18.13;10.55;;;17.20;99.90;;;;;;5013537;28;20120;-71
2022/10/29 11:53:17;;;;;;;19.85;10.57;;;17.40;99.90;;;;;;5000751;28;20049;-72
2022/10/29 11:56:04;;;;;;;24.95;10.80;;;17.60;99.90;;;;;;4997237;28;20130;-71
2022/10/29 11:58:34;;;;;;;24.05;11.05;;;17.30;99.90;;;;;;5002232;28;20041;-71
2022/10/29 12:01:08;;;;;;;23.95;11.25;;;17.40;99.90;;;;;;4997378;28;20497;-71
2022/10/29 12:04:08;;;;;;;24.65;11.02;;;17.40;99.90;;;;;;5000920;28;20045;-72
2022/10/29 12:06:39;;;;;;;21.90;10.60;;;17.50;99.90;;;;;;4999432;28;20513;-71
2022/10/29 12:09:27;;;;;;;21.67;10.97;;;17.40;99.90;;;;;;4998601;28;20117;-71
2022/10/29 12:12:27;;;;;;;21.25;11.38;;;17.30;99.90;;;;;;5002993;28;20041;-71
2022/10/29 12:15:16;;;;;;;23.52;11.13;;;17.40;99.90;;;;;;4998795;28;20499;-71
2022/10/29 12:17:58;;;;;;;21.48;11.45;;;17.70;99.90;;;;;;5003517;28;20045;-71
2022/10/29 12:20:47;;;;;;;21.77;11.80;;;17.40;99.90;;;;;;5004665;28;20042;-71
2022/10/29 12:23:23;;;;;;;24.70;12.20;;;17.70;99.90;;;;;;4988104;28;20041;-71
2022/10/29 12:26:04;;;;;;;33.30;13.40;;;17.60;99.90;;;;;;5003306;28;20124;-71
2022/10/29 12:28:38;;;;;;;27.63;13.02;;;17.70;99.90;;;;;;5003092;28;20107;-71
2022/10/29 12:31:27;;;;;;;26.17;12.75;;;17.80;99.90;;;;;;5004025;28;20133;-71
2022/10/29 12:34:07;;;;;;;21.27;11.68;;;17.80;99.90;;;;;;5011637;28;20049;-71
2022/10/29 12:36:53;;;;;;;25.90;12.95;;;17.90;99.90;;;;;;4999572;28;20078;-72
2022/10/29 12:39:34;;;;;;;22.88;11.50;;;17.90;99.90;;;;;;4995491;28;20859;-71
2022/10/29 12:42:12;;;;;;;21.17;10.88;;;18.10;99.90;;;;;;5002863;28;20053;-72
2022/10/29 12:44:47;;;;;;;24.65;11.40;;;18.50;99.90;;;;;;4988079;28;20129;-72